createdAt,value
2018-08-20T00:01:43.555Z,24.51
2018-08-20T00:04:12.723Z,24.52
2018-08-20T00:06:51.024Z,24.52
2018-08-20T00:09:21.710Z,24.51
2018-08-20T00:11:50.827Z,24.53
2018-08-20T00:14:21.931Z,24.51
2018-08-20T00:16:51.067Z,24.50
2018-08-20T00:19:20.172Z,24.52
2018-08-20T00:21:49.430Z,24.53
2018-08-20T00:24:18.457Z,24.50
2018-08-20T00:26:47.578Z,24.49
2018-08-20T00:29:16.784Z,24.51
2018-08-20T00:31:46.102Z,24.52
2018-08-20T00:34:15.163Z,24.53
2018-08-20T00:36:46.013Z,24.55
2018-08-20T00:39:15.114Z,24.58
2018-08-20T00:41:44.654Z,24.55
2018-08-20T00:44:15.083Z,24.57
2018-08-20T00:46:45.403Z,24.58
2018-08-20T00:49:15.621Z,24.56
2018-08-20T00:51:44.932Z,24.57
2018-08-20T00:54:14.087Z,24.57
2018-08-20T00:56:43.147Z,24.57
2018-08-20T00:59:12.224Z,24.58
2018-08-20T01:01:41.271Z,24.57
2018-08-20T01:04:10.463Z,24.59
2018-08-20T01:06:39.551Z,24.57
2018-08-20T01:09:09.146Z,24.56
2018-08-20T01:11:38.421Z,24.60
2018-08-20T01:14:07.551Z,24.60
2018-08-20T01:16:36.607Z,24.59
2018-08-20T01:19:05.829Z,24.60
2018-08-20T01:21:34.935Z,24.58
2018-08-20T01:24:04.045Z,24.58
2018-08-20T01:26:33.129Z,24.56
2018-08-20T01:29:02.283Z,24.56
2018-08-20T01:31:31.430Z,24.55
2018-08-20T01:34:00.512Z,24.58
2018-08-20T01:36:29.618Z,24.53
2018-08-20T01:38:58.690Z,24.54
2018-08-20T01:41:28.015Z,24.54
2018-08-20T01:43:57.223Z,24.57
2018-08-20T01:46:26.303Z,24.56
2018-08-20T01:48:55.391Z,24.57
2018-08-20T01:51:24.451Z,24.57
2018-08-20T01:53:53.510Z,24.56
2018-08-20T01:56:22.591Z,24.56
2018-08-20T01:58:51.650Z,24.57
2018-08-20T02:01:20.787Z,24.58
2018-08-20T02:03:49.895Z,24.58
2018-08-20T02:06:19.160Z,24.58
2018-08-20T02:08:48.227Z,24.56
2018-08-20T02:11:17.279Z,24.58
2018-08-20T02:13:46.339Z,24.57
2018-08-20T02:16:15.459Z,24.57
2018-08-20T02:18:44.547Z,24.58
2018-08-20T02:21:13.646Z,24.58
2018-08-20T02:23:42.739Z,24.57
2018-08-20T02:26:11.815Z,24.59
2018-08-20T02:28:40.954Z,24.59
2018-08-20T02:31:10.172Z,24.60
2018-08-20T02:33:39.235Z,24.59
2018-08-20T02:36:08.351Z,24.56
2018-08-20T02:38:37.459Z,24.59
2018-08-20T02:41:06.561Z,24.60
2018-08-20T02:43:36.012Z,24.63
2018-08-20T02:46:05.085Z,24.63
2018-08-20T02:48:34.223Z,24.61
2018-08-20T02:51:03.300Z,24.60
2018-08-20T02:53:32.410Z,24.63
2018-08-20T02:56:01.595Z,24.64
2018-08-20T02:58:30.691Z,24.64
2018-08-20T03:00:59.780Z,24.62
2018-08-20T03:03:28.792Z,24.63
2018-08-20T03:05:57.976Z,24.63
2018-08-20T03:08:27.082Z,24.64
2018-08-20T03:10:56.168Z,24.64
2018-08-20T03:13:25.264Z,24.65
2018-08-20T03:15:54.377Z,24.67
2018-08-20T03:18:23.572Z,24.67
2018-08-20T03:20:52.777Z,24.63
2018-08-20T03:23:21.964Z,24.63
2018-08-20T03:25:51.179Z,24.64
2018-08-20T03:28:20.362Z,24.60
2018-08-20T03:30:49.564Z,24.63
2018-08-20T03:33:18.798Z,24.64
2018-08-20T03:35:48.069Z,24.62
2018-08-20T03:38:17.340Z,24.63
2018-08-20T03:40:46.468Z,24.61
2018-08-20T03:43:15.682Z,24.62
2018-08-20T03:45:44.750Z,24.64
2018-08-20T03:48:13.877Z,24.62
2018-08-20T03:50:43.044Z,24.62
2018-08-20T03:53:12.138Z,24.58
2018-08-20T03:55:41.221Z,24.58
2018-08-20T03:58:10.268Z,24.59
2018-08-20T04:00:39.418Z,24.58
2018-08-20T04:03:08.489Z,24.62
2018-08-20T04:05:37.605Z,24.58
2018-08-20T04:08:06.658Z,24.57
2018-08-20T04:10:35.715Z,24.59
2018-08-20T04:13:04.794Z,24.59
2018-08-20T04:15:33.970Z,24.59
2018-08-20T04:18:03.124Z,24.58
2018-08-20T04:20:32.183Z,24.56
2018-08-20T04:23:01.274Z,24.57
2018-08-20T04:25:30.379Z,24.57
2018-08-20T04:27:59.464Z,24.52
2018-08-20T04:30:28.534Z,24.52
2018-08-20T04:32:57.883Z,24.51
2018-08-20T04:35:27.042Z,24.51
2018-08-20T04:37:56.238Z,24.46
2018-08-20T04:40:25.397Z,24.38
2018-08-20T04:42:54.460Z,24.38
2018-08-20T04:45:23.554Z,24.43
2018-08-20T04:47:52.651Z,24.43
2018-08-20T04:50:22.031Z,24.44
2018-08-20T04:52:51.081Z,24.39
2018-08-20T04:55:20.276Z,24.40
2018-08-20T04:57:49.338Z,24.43
2018-08-20T05:00:18.409Z,24.30
2018-08-20T05:02:47.540Z,24.19
2018-08-20T05:05:16.656Z,24.20
2018-08-20T05:07:45.852Z,24.25
2018-08-20T05:10:15.225Z,24.04
2018-08-20T05:12:44.343Z,24.00
2018-08-20T05:15:13.444Z,24.03
2018-08-20T05:17:42.498Z,24.03
2018-08-20T05:20:11.630Z,24.11
2018-08-20T05:22:40.702Z,24.09
2018-08-20T05:25:09.850Z,24.03
2018-08-20T05:27:39.061Z,24.07
2018-08-20T05:30:08.684Z,23.99
2018-08-20T05:32:38.049Z,23.81
2018-08-20T05:35:07.431Z,23.69
2018-08-20T05:37:36.572Z,23.75
2018-08-20T05:40:05.860Z,23.84
2018-08-20T05:42:34.927Z,23.91
2018-08-20T05:45:04.140Z,23.96
2018-08-20T05:47:33.212Z,23.98
2018-08-20T05:50:02.318Z,24.00
2018-08-20T05:52:31.384Z,24.01
2018-08-20T05:55:00.714Z,23.81
2018-08-20T05:57:29.932Z,23.94
2018-08-20T05:59:59.109Z,23.97
2018-08-20T06:02:28.180Z,23.99
2018-08-20T06:04:57.248Z,23.99
2018-08-20T06:07:26.413Z,23.81
2018-08-20T06:09:55.454Z,23.81
2018-08-20T06:12:24.608Z,23.88
2018-08-20T06:14:53.675Z,23.93
2018-08-20T06:17:22.896Z,23.96
2018-08-20T06:19:51.973Z,23.98
2018-08-20T06:22:21.064Z,23.93
2018-08-20T06:24:50.315Z,23.97
2018-08-20T06:27:19.676Z,23.94
2018-08-20T06:29:48.891Z,23.88
2018-08-20T06:32:18.095Z,23.90
2018-08-20T06:34:47.158Z,23.95
2018-08-20T06:37:16.360Z,23.99
2018-08-20T06:39:45.563Z,24.00
2018-08-20T06:42:14.632Z,24.03
2018-08-20T06:44:43.747Z,24.05
2018-08-20T06:47:12.820Z,24.06
2018-08-20T06:49:41.872Z,24.09
2018-08-20T06:52:11.077Z,23.98
2018-08-20T06:54:40.237Z,23.81
2018-08-20T06:57:09.408Z,23.90
2018-08-20T06:59:38.523Z,23.91
2018-08-20T07:02:07.627Z,23.96
2018-08-20T07:04:36.720Z,23.98
2018-08-20T07:07:05.876Z,23.99
2018-08-20T07:09:35.043Z,23.93
2018-08-20T07:12:04.128Z,23.99
2018-08-20T07:14:33.191Z,23.99
2018-08-20T07:17:02.290Z,23.97
2018-08-20T07:19:31.516Z,23.85
2018-08-20T07:22:00.621Z,23.96
2018-08-20T07:24:29.693Z,23.96
2018-08-20T07:26:58.790Z,23.97
2018-08-20T07:29:38.176Z,23.98
2018-08-20T07:32:09.728Z,24.03
2018-08-20T07:34:40.787Z,24.03
2018-08-20T07:37:15.108Z,23.90
2018-08-20T07:39:45.540Z,23.95
2018-08-20T07:42:14.667Z,24.04
2018-08-20T07:44:44.597Z,24.05
2018-08-20T07:47:13.766Z,24.01
2018-08-20T07:49:42.881Z,24.02
2018-08-20T07:52:12.140Z,24.01
2018-08-20T07:54:41.431Z,24.10
2018-08-20T07:57:11.101Z,24.13
2018-08-20T07:59:45.613Z,24.19
2018-08-20T08:02:14.683Z,24.20
2018-08-20T08:04:43.792Z,24.24
2018-08-20T08:07:18.353Z,24.29
2018-08-20T08:09:47.504Z,24.33
2018-08-20T08:12:16.570Z,24.34
2018-08-20T08:14:45.919Z,24.15
2018-08-20T08:17:15.038Z,24.22
2018-08-20T08:19:44.288Z,24.27
2018-08-20T08:22:13.512Z,24.33
2018-08-20T08:24:42.603Z,24.36
2018-08-20T08:27:11.827Z,24.40
2018-08-20T08:29:41.024Z,24.39
2018-08-20T08:32:10.095Z,24.41
2018-08-20T08:34:39.197Z,24.50
2018-08-20T08:37:08.402Z,24.53
2018-08-20T08:39:37.611Z,24.51
2018-08-20T08:42:06.804Z,24.46
2018-08-20T08:44:35.881Z,24.31
2018-08-20T08:47:05.182Z,24.43
2018-08-20T08:49:34.275Z,24.51
2018-08-20T08:52:03.902Z,24.47
2018-08-20T08:54:33.105Z,24.45
2018-08-20T08:57:02.307Z,24.37
2018-08-20T08:59:31.359Z,24.40
2018-08-20T09:02:00.518Z,24.51
2018-08-20T09:04:30.459Z,24.59
2018-08-20T09:06:59.599Z,24.62
2018-08-20T09:09:28.712Z,24.52
2018-08-20T09:11:57.783Z,24.40
2018-08-20T09:14:26.884Z,24.44
2018-08-20T09:16:56.083Z,24.29
2018-08-20T09:19:25.294Z,24.40
2018-08-20T09:21:54.571Z,24.50
2018-08-20T09:24:24.316Z,24.64
2018-08-20T09:26:53.539Z,24.70
2018-08-20T09:29:22.692Z,24.74
2018-08-20T09:31:51.897Z,24.77
2018-08-20T09:34:21.054Z,24.83
2018-08-20T09:36:50.179Z,24.78
2018-08-20T09:39:19.404Z,24.64
2018-08-20T09:41:48.567Z,24.61
2018-08-20T09:44:17.675Z,24.69
2018-08-20T09:46:46.824Z,24.75
2018-08-20T09:49:16.054Z,24.85
2018-08-20T09:51:45.135Z,24.93
2018-08-20T09:54:14.264Z,24.97
2018-08-20T09:56:43.388Z,25.07
2018-08-20T09:59:12.671Z,25.11
2018-08-20T10:01:41.841Z,25.09
2018-08-20T10:04:10.949Z,25.03
2018-08-20T10:06:40.046Z,25.06
2018-08-20T10:09:09.267Z,25.07
2018-08-20T10:11:38.408Z,25.08
2018-08-20T10:14:07.527Z,25.06
2018-08-20T10:16:36.618Z,25.07
2018-08-20T10:19:06.064Z,25.12
2018-08-20T10:21:36.166Z,25.01
2018-08-20T10:24:05.248Z,24.99
2018-08-20T10:26:34.412Z,25.00
2018-08-20T10:29:03.516Z,25.09
2018-08-20T10:31:32.631Z,25.07
2018-08-20T10:34:02.220Z,25.13
2018-08-20T10:36:31.351Z,25.22
2018-08-20T10:39:00.527Z,25.24
2018-08-20T10:41:29.731Z,25.14
2018-08-20T10:43:58.938Z,25.16
2018-08-20T10:46:28.048Z,25.10
2018-08-20T10:48:58.319Z,25.17
2018-08-20T10:51:27.473Z,25.23
2018-08-20T10:53:56.572Z,25.16
2018-08-20T10:56:25.698Z,25.03
2018-08-20T10:58:54.940Z,24.94
2018-08-20T11:01:24.006Z,25.04
2018-08-20T11:03:56.119Z,25.02
2018-08-20T11:06:26.407Z,24.97
2018-08-20T11:08:55.656Z,25.05
2018-08-20T11:11:24.836Z,25.09
2018-08-20T11:13:54.053Z,25.20
2018-08-20T11:16:23.181Z,25.25
2018-08-20T11:18:52.367Z,25.12
2018-08-20T11:21:21.663Z,25.16
2018-08-20T11:23:50.897Z,25.17
2018-08-20T11:26:20.000Z,25.25
2018-08-20T11:28:49.082Z,25.27
2018-08-20T11:31:18.219Z,25.33
2018-08-20T11:33:47.290Z,25.41
2018-08-20T11:36:16.427Z,25.46
2018-08-20T11:38:45.497Z,25.46
2018-08-20T11:41:14.556Z,25.47
2018-08-20T11:43:43.858Z,25.46
2018-08-20T11:46:12.993Z,25.56
2018-08-20T11:48:42.051Z,25.45
2018-08-20T11:51:11.166Z,25.37
2018-08-20T11:53:40.264Z,25.35
2018-08-20T11:56:09.452Z,25.27
2018-08-20T11:58:38.593Z,25.28
2018-08-20T12:01:07.772Z,25.39
2018-08-20T12:03:36.925Z,25.39
2018-08-20T12:06:06.268Z,25.44
2018-08-20T12:08:35.474Z,25.47
2018-08-20T12:11:04.663Z,25.50
2018-08-20T12:13:33.868Z,25.52
2018-08-20T12:16:02.972Z,25.55
2018-08-20T12:18:32.166Z,25.57
2018-08-20T12:21:01.456Z,25.54
2018-08-20T12:23:30.540Z,25.49
2018-08-20T12:25:59.740Z,25.49
2018-08-20T12:28:28.869Z,25.49
2018-08-20T12:30:58.066Z,25.54
2018-08-20T12:33:27.267Z,25.48
2018-08-20T12:35:56.342Z,25.57
2018-08-20T12:38:25.458Z,25.50
2018-08-20T12:40:54.533Z,25.47
2018-08-20T12:43:23.588Z,25.33
2018-08-20T12:45:52.724Z,25.37
2018-08-20T12:48:21.794Z,25.49
2018-08-20T12:50:50.911Z,25.54
2018-08-20T12:53:19.968Z,25.52
2018-08-20T12:55:49.010Z,25.61
2018-08-20T12:58:18.113Z,25.67
2018-08-20T13:00:47.290Z,25.56
2018-08-20T13:03:16.612Z,25.57
2018-08-20T13:05:45.755Z,25.57
2018-08-20T13:08:14.880Z,25.59
2018-08-20T13:10:43.952Z,25.67
2018-08-20T13:13:13.022Z,25.73
2018-08-20T13:15:42.219Z,25.79
2018-08-20T13:18:11.540Z,25.79
2018-08-20T13:20:40.688Z,25.78
2018-08-20T13:23:09.783Z,25.82
2018-08-20T13:25:38.862Z,25.81
2018-08-20T13:28:07.988Z,25.82
2018-08-20T13:30:37.109Z,25.76
2018-08-20T13:33:06.639Z,25.81
2018-08-20T13:35:35.853Z,25.79
2018-08-20T13:38:04.980Z,25.72
2018-08-20T13:40:34.264Z,25.67
2018-08-20T13:43:03.335Z,25.65
2018-08-20T13:45:32.442Z,25.65
2018-08-20T13:48:01.492Z,25.60
2018-08-20T13:50:30.635Z,25.53
2018-08-20T13:52:59.754Z,25.59
2018-08-20T13:55:28.739Z,25.62
2018-08-20T13:57:57.826Z,25.60
2018-08-20T14:00:27.019Z,25.58
2018-08-20T14:02:56.079Z,25.65
2018-08-20T14:05:25.210Z,25.71
2018-08-20T14:07:54.388Z,25.75
2018-08-20T14:10:23.514Z,25.78
2018-08-20T14:12:52.558Z,25.81
2018-08-20T14:15:21.718Z,25.74
2018-08-20T14:17:56.120Z,25.71
2018-08-20T14:20:30.858Z,25.67
2018-08-20T14:22:59.972Z,25.73
2018-08-20T14:25:29.154Z,25.81
2018-08-20T14:27:58.260Z,25.87
2018-08-20T14:30:27.268Z,25.84
2018-08-20T14:32:56.494Z,25.88
2018-08-20T14:35:25.572Z,25.83
2018-08-20T14:37:54.627Z,25.83
2018-08-20T14:40:23.714Z,25.83
2018-08-20T14:42:52.802Z,25.82
2018-08-20T14:45:21.920Z,25.71
2018-08-20T14:47:51.140Z,25.62
2018-08-20T14:50:20.440Z,25.70
2018-08-20T14:52:49.483Z,25.72
2018-08-20T14:55:18.659Z,25.60
2018-08-20T14:57:53.328Z,25.52
2018-08-20T15:00:22.556Z,25.58
2018-08-20T15:02:51.606Z,25.59
2018-08-20T15:05:20.856Z,25.57
2018-08-20T15:07:49.913Z,25.53
2018-08-20T15:10:18.966Z,25.49
2018-08-20T15:12:48.118Z,25.46
2018-08-20T15:15:17.236Z,25.49
2018-08-20T15:17:46.504Z,25.44
2018-08-20T15:20:15.566Z,25.42
2018-08-20T15:22:44.695Z,25.48
2018-08-20T15:25:13.810Z,25.43
2018-08-20T15:27:43.017Z,25.38
2018-08-20T15:30:12.111Z,25.38
2018-08-20T15:32:41.202Z,25.40
2018-08-20T15:35:10.519Z,25.30
2018-08-20T15:37:39.559Z,25.29
2018-08-20T15:40:08.669Z,25.25
2018-08-20T15:42:37.738Z,25.34
2018-08-20T15:45:06.794Z,25.41
2018-08-20T15:47:35.907Z,25.45
2018-08-20T15:50:05.189Z,25.44
2018-08-20T15:52:34.378Z,25.47
2018-08-20T15:55:03.569Z,25.49
2018-08-20T15:57:32.771Z,25.46
2018-08-20T16:00:01.943Z,25.51
2018-08-20T16:02:31.063Z,25.48
2018-08-20T16:05:00.141Z,25.40
2018-08-20T16:07:29.347Z,25.39
2018-08-20T16:09:58.547Z,25.42
2018-08-20T16:12:27.744Z,25.48
2018-08-20T16:14:56.906Z,25.53
2018-08-20T16:17:26.051Z,25.52
2018-08-20T16:19:55.229Z,25.56
2018-08-20T16:22:24.446Z,25.60
2018-08-20T16:24:53.626Z,25.63
2018-08-20T16:27:22.854Z,25.65
2018-08-20T16:29:52.014Z,25.64
2018-08-20T16:32:21.098Z,25.66
2018-08-20T16:34:50.167Z,25.66
2018-08-20T16:37:19.229Z,25.68
2018-08-20T16:39:48.416Z,25.72
2018-08-20T16:42:17.556Z,25.73
2018-08-20T16:44:46.713Z,25.75
2018-08-20T16:47:15.896Z,25.77
2018-08-20T16:49:44.972Z,25.77
2018-08-20T16:52:14.062Z,25.79
2018-08-20T16:54:43.207Z,25.76
2018-08-20T16:57:12.367Z,25.72
2018-08-20T16:59:41.451Z,25.69
2018-08-20T17:02:14.400Z,25.72
2018-08-20T17:04:43.482Z,25.70
2018-08-20T17:07:12.594Z,25.65
2018-08-20T17:09:41.778Z,25.58
2018-08-20T17:12:10.854Z,25.59
2018-08-20T17:14:39.967Z,25.64
2018-08-20T17:17:09.155Z,25.57
2018-08-20T17:19:38.333Z,25.54
2018-08-20T17:22:07.661Z,25.49
2018-08-20T17:24:39.273Z,25.47
2018-08-20T17:27:08.926Z,25.48
2018-08-20T17:29:38.024Z,25.52
2018-08-20T17:32:08.195Z,25.51
2018-08-20T17:34:44.000Z,25.49
2018-08-20T17:37:13.171Z,25.45
2018-08-20T17:39:56.731Z,25.35
2018-08-20T17:42:27.596Z,25.37
2018-08-20T17:44:57.228Z,25.38
2018-08-20T17:47:27.294Z,25.33
2018-08-20T17:49:57.371Z,25.34
2018-08-20T17:52:29.987Z,25.39
2018-08-20T17:55:00.627Z,25.39
2018-08-20T17:57:30.012Z,25.38
2018-08-20T18:00:38.951Z,25.32
2018-08-20T18:03:14.443Z,25.28
2018-08-20T18:05:43.635Z,25.30
2018-08-20T18:08:12.801Z,25.26
2018-08-20T18:10:41.971Z,25.16
2018-08-20T18:13:11.079Z,25.18
2018-08-20T18:15:40.192Z,25.18
2018-08-20T18:18:09.279Z,25.13
2018-08-20T18:20:42.564Z,25.21
2018-08-20T18:23:11.665Z,25.22
2018-08-20T18:25:42.119Z,25.18
2018-08-20T18:28:11.288Z,25.15
2018-08-20T18:30:40.459Z,25.17
2018-08-20T18:33:09.583Z,25.12
2018-08-20T18:35:38.677Z,25.08
2018-08-20T18:38:07.894Z,25.02
2018-08-20T18:40:37.066Z,24.97
2018-08-20T18:43:06.527Z,25.00
2018-08-20T18:45:35.692Z,24.93
2018-08-20T18:48:04.893Z,24.96
2018-08-20T18:50:33.987Z,24.93
2018-08-20T18:53:03.079Z,24.93
2018-08-20T18:55:32.163Z,24.86
2018-08-20T18:58:01.277Z,24.77
2018-08-20T19:00:30.378Z,24.63
2018-08-20T19:03:00.537Z,24.60
2018-08-20T19:05:39.177Z,24.50
2018-08-20T19:08:12.444Z,24.36
2018-08-20T19:10:41.611Z,24.31
2018-08-20T19:13:10.788Z,24.25
2018-08-20T19:15:43.072Z,24.26
2018-08-20T19:18:14.492Z,24.11
2018-08-20T19:20:44.425Z,24.00
2018-08-20T19:23:13.483Z,24.10
2018-08-20T19:25:42.569Z,24.16
2018-08-20T19:28:17.108Z,24.17
2018-08-20T19:30:46.217Z,24.08
2018-08-20T19:33:20.515Z,24.09
2018-08-20T19:35:49.675Z,24.14
2018-08-20T19:38:19.078Z,24.14
2018-08-20T19:41:03.565Z,24.19
2018-08-20T19:43:39.041Z,24.20
2018-08-20T19:46:08.174Z,24.13
2018-08-20T19:48:37.274Z,24.13
2018-08-20T19:51:08.534Z,24.14
2018-08-20T19:53:39.383Z,24.10
2018-08-20T19:56:12.485Z,24.05
2018-08-20T19:58:43.582Z,23.94
2018-08-20T20:01:19.447Z,23.75
2018-08-20T20:03:49.891Z,23.86
2018-08-20T20:06:19.204Z,23.92
2018-08-20T20:08:48.361Z,23.98
2018-08-20T20:11:23.398Z,24.00
2018-08-20T20:13:53.825Z,23.98
2018-08-20T20:16:23.164Z,24.03
2018-08-20T20:18:52.668Z,24.01
2018-08-20T20:21:22.387Z,24.06
2018-08-20T20:23:51.752Z,24.10
2018-08-20T20:26:21.010Z,24.11
2018-08-20T20:28:50.224Z,24.11
2018-08-20T20:31:19.439Z,24.11
2018-08-20T20:33:48.664Z,24.08
2018-08-20T20:36:24.139Z,24.02
2018-08-20T20:38:53.326Z,23.98
2018-08-20T20:41:23.046Z,24.01
2018-08-20T20:43:52.485Z,23.95
2018-08-20T20:46:21.664Z,23.93
2018-08-20T20:48:50.830Z,23.87
2018-08-20T20:51:19.874Z,23.88
2018-08-20T20:53:49.232Z,23.91
2018-08-20T20:56:18.390Z,23.90
2018-08-20T20:58:47.468Z,23.90
2018-08-20T21:01:16.687Z,23.91
2018-08-20T21:03:45.920Z,23.90
2018-08-20T21:06:16.106Z,23.91
2018-08-20T21:08:50.940Z,23.93
2018-08-20T21:11:21.307Z,23.87
2018-08-20T21:13:50.580Z,23.90
2018-08-20T21:16:23.007Z,23.92
2018-08-20T21:18:55.437Z,23.93
2018-08-20T21:21:25.271Z,23.97
2018-08-20T21:23:56.440Z,23.98
2018-08-20T21:26:25.536Z,23.99
2018-08-20T21:28:55.257Z,23.97
2018-08-20T21:31:25.538Z,24.02
2018-08-20T21:33:55.780Z,24.01
2018-08-20T21:36:24.876Z,24.05
2018-08-20T21:38:53.995Z,24.03
2018-08-20T21:41:24.760Z,23.99
2018-08-20T21:43:54.190Z,23.80
2018-08-20T21:46:23.383Z,23.84
2018-08-20T21:48:52.777Z,23.86
2018-08-20T21:51:26.681Z,23.88
2018-08-20T21:53:55.868Z,23.90
2018-08-20T21:56:25.321Z,23.82
2018-08-20T21:58:54.419Z,23.82
2018-08-20T22:01:23.572Z,23.79
2018-08-20T22:03:52.778Z,23.81
2018-08-20T22:06:22.020Z,23.86
2018-08-20T22:08:51.136Z,23.91
2018-08-20T22:11:20.354Z,23.93
2018-08-20T22:13:49.407Z,23.92
2018-08-20T22:16:21.135Z,23.91
2018-08-20T22:18:53.727Z,23.92
2018-08-20T22:21:22.964Z,23.88
2018-08-20T22:23:52.678Z,23.93
2018-08-20T22:26:22.043Z,23.95
2018-08-20T22:28:51.843Z,23.94
2018-08-20T22:31:21.252Z,23.94
2018-08-20T22:33:56.763Z,23.96
2018-08-20T22:36:26.595Z,23.97
2018-08-20T22:38:59.897Z,23.97
2018-08-20T22:41:30.019Z,23.98
2018-08-20T22:43:59.159Z,24.01
2018-08-20T22:46:28.247Z,23.98
2018-08-20T22:48:59.454Z,23.99
2018-08-20T22:51:29.377Z,24.02
2018-08-20T22:54:00.000Z,24.02
2018-08-20T22:56:36.378Z,23.99
2018-08-20T22:59:07.227Z,23.96
2018-08-20T23:01:36.376Z,23.93
2018-08-20T23:04:05.643Z,23.93
2018-08-20T23:06:34.727Z,23.80
2018-08-20T23:09:20.652Z,23.79
2018-08-20T23:11:49.691Z,23.72
2018-08-20T23:14:18.836Z,23.68
2018-08-20T23:16:50.054Z,23.68
2018-08-20T23:19:19.441Z,23.57
2018-08-20T23:21:49.347Z,23.48
2018-08-20T23:24:18.443Z,23.47
2018-08-20T23:26:47.500Z,23.40
2018-08-20T23:29:16.566Z,23.42
2018-08-20T23:31:45.672Z,23.50
2018-08-20T23:34:15.627Z,23.52
2018-08-20T23:36:44.709Z,23.41
2018-08-20T23:39:16.103Z,23.33
2018-08-20T23:41:45.420Z,23.37
2018-08-20T23:44:15.756Z,23.47
2018-08-20T23:46:47.705Z,23.46
2018-08-20T23:49:16.812Z,23.48
2018-08-20T23:51:46.035Z,23.53
2018-08-20T23:54:15.107Z,23.55
2018-08-20T23:56:44.187Z,23.56
2018-08-20T23:59:13.305Z,23.54
